Etusivu
METAR-TAF:

METAR-TAF

Lentoasemat :

Laghouat, Algeria

Leveyspiiri: 33-46N, Pituuspiiri: 002-56E, korkeus merenpinnasta: 765 m

Tämänhetkinen sää

Tämä raportti tehtiin 1 tunti ja 1 minuuttia sitten, kello 08.00 UTC
tyyntä
Lämpötila 28°C
Kosteus 35%
Ilmanpaine 1022 hPa
Näkyvyys: 8000 m
Muutamia pilviä 3300 ft:n korkeudessa, Cumulonimbus.
Hajanaisia pilviä 4000 ft:n korkeudessa

METAR: DAUL 140800Z 00000KT 8000 FEW033CB SCT040 28/11 Q1022

Aika: 10:01 (09:01 UTC)

Sääennuste

Tämä raportti tehtiin 1 tunti ja 1 minuuttia sitten, kello 08.00 UTC
Ennuste voimassa 14. päivästä klo 09 UTC - 14. päivään klo 18 UTC
Tuuli 6 kn idästä/kaakosta
Näkyvyys: 7000 m
Muutamia pilviä 3000 ft:n korkeudessa
Hajanaisia pilviä 4000 ft:n korkeudessa
Ajoittain
14. päivästä klo 09 UTC - 14. päivään klo 15 UTC
Muutamia pilviä 3300 ft:n korkeudessa, Cumulonimbus.

TAF: DAUL 140800Z 1409/1418 12006KT 7000 FEW030 SCT040 TEMPO 1409/1415 FEW033CB

Säähavainnot ja -ennusteet yli 4000 lentoasemalta (METAR- ja TAF-raportit).

Käytössä olevat sääasemat on merkitty karttaan keltaisilla ja punaisilla pisteillä.

Aseta hiiri pisteen päälle nähdäksesi sääaseman nimen.

Klikkaa sitten nähdäksesi säähavainnot ja -ennusteet.

Kartan vaihtaminen: klikkaa mustalla rastilla varustettuja vihreitä pisteitä, niin voit zoomata sisään; viivalla varustettua vihreää pistettä, niin voit zoomata ulos tai vihreitä nuolia, niin pääset viereisille kartoille.


METAR-TAF: